Time;durP1;ratioP1;P1;durP2;ratioP2;P2;SDS_P1;SDS_P2;PMS_P1;PMS_P2;Temp;Humidity;BMP_temperature;BMP_pressure;BME280_temperature;BME280_humidity;BME280_pressure;Samples;Min_cycle;Max_cycle;Signal;HPM_P1;HPM_P2
2022/08/26 00:01:42;;;;;;;15.98;4.60;;;;;;;26.02;72.22;98703.91;5111387;28;20698;-64
2022/08/26 00:04:11;;;;;;;25.83;5.22;;;;;;;26.06;73.26;98666.34;5111429;27;20520;-65
2022/08/26 00:06:38;;;;;;;24.90;5.25;;;;;;;26.12;73.72;98674.50;5111595;28;20306;-65
2022/08/26 00:09:05;;;;;;;18.40;4.78;;;;;;;26.08;72.59;98672.31;5111316;28;20205;-58
2022/08/26 00:11:33;;;;;;;25.15;5.80;;;;;;;26.03;72.39;98659.53;5111429;28;20195;-58
2022/08/26 00:14:00;;;;;;;28.95;5.53;;;;;;;26.02;72.37;98668.50;5111276;28;20194;-64
2022/08/26 00:16:28;;;;;;;22.10;5.22;;;;;;;26.04;71.92;98677.16;5110151;28;20202;-64
2022/08/26 00:18:56;;;;;;;20.10;4.97;;;;;;;26.07;71.44;98676.00;5110357;28;20237;-63
2022/08/26 00:21:24;;;;;;;20.00;5.30;;;;;;;26.06;71.56;98684.97;5111036;28;20686;-63
2022/08/26 00:23:51;;;;;;;17.08;4.80;;;;;;;26.02;71.54;98687.94;5111114;28;20198;-63
2022/08/26 00:26:18;;;;;;;25.75;4.55;;;;;;;25.99;70.97;98688.25;5111010;28;20198;-63
2022/08/26 00:28:45;;;;;;;19.05;5.03;;;;;;;26.07;70.92;98687.47;5111045;28;20310;-63
2022/08/26 00:31:12;;;;;;;19.40;5.72;;;;;;;26.03;71.66;98680.81;5110912;28;20199;-57
2022/08/26 00:33:39;;;;;;;21.65;4.90;;;;;;;26.07;71.92;98678.66;5111018;28;20225;-57
2022/08/26 00:36:08;;;;;;;17.55;5.20;;;;;;;26.05;71.89;98681.47;5110617;28;20216;-58
2022/08/26 00:38:37;;;;;;;14.88;5.20;;;;;;;25.91;71.72;98666.97;5110799;28;20197;-61
2022/08/26 00:41:05;;;;;;;25.85;5.55;;;;;;;25.97;71.85;98686.75;5110745;28;20197;-62
2022/08/26 00:43:34;;;;;;;23.15;5.25;;;;;;;25.98;71.90;98696.41;5110604;28;20205;-63
2022/08/26 00:46:12;;;;;;;27.67;5.18;;;;;;;25.92;72.28;98689.91;5110607;28;20230;-57
2022/08/26 00:48:42;;;;;;;23.63;4.90;;;;;;;25.82;72.00;98661.81;5110572;28;20218;-58
2022/08/26 00:51:14;;;;;;;18.67;5.53;;;;;;;25.93;72.50;98683.59;5110617;28;20274;-57
2022/08/26 00:53:48;;;;;;;23.73;5.85;;;;;;;25.92;72.25;98681.94;5110595;28;20199;-58
2022/08/26 00:56:20;;;;;;;21.55;5.22;;;;;;;25.95;72.47;98678.97;5110496;28;20199;-57
2022/08/26 00:58:50;;;;;;;21.98;5.20;;;;;;;25.86;72.85;98660.47;5110650;28;20194;-57
2022/08/26 01:01:18;;;;;;;15.82;5.03;;;;;;;25.96;71.90;98675.28;5110535;28;20201;-65
2022/08/26 01:03:46;;;;;;;21.02;4.90;;;;;;;25.86;72.46;98671.94;5110461;28;20225;-64
2022/08/26 01:06:15;;;;;;;22.35;5.97;;;;;;;25.91;72.25;98674.94;5110277;28;20198;-63
2022/08/26 01:08:43;;;;;;;17.80;5.50;;;;;;;25.85;72.64;98667.59;5110259;28;20309;-62
2022/08/26 01:11:12;;;;;;;20.58;5.80;;;;;;;25.86;73.08;98679.06;5110304;28;20572;-63
2022/08/26 01:13:39;;;;;;;17.48;5.80;;;;;;;25.85;72.30;98680.91;5110362;28;20281;-64
2022/08/26 01:16:10;;;;;;;23.58;5.60;;;;;;;25.85;72.49;98680.06;5110117;28;20201;-64
2022/08/26 01:18:39;;;;;;;23.65;5.35;;;;;;;25.85;72.65;98683.56;5109936;28;20230;-64
2022/08/26 01:21:14;;;;;;;15.93;4.82;;;;;;;25.87;72.84;98686.06;5110059;28;20220;-66
2022/08/26 01:23:45;;;;;;;18.52;5.25;;;;;;;25.81;72.85;98681.41;5110395;28;20198;-66
2022/08/26 01:26:16;;;;;;;19.63;5.20;;;;;;;25.82;73.07;98667.94;5109997;28;20200;-66
2022/08/26 01:28:44;;;;;;;21.23;5.03;;;;;;;25.82;72.86;98667.13;5110020;28;20222;-66
2022/08/26 01:31:14;;;;;;;18.50;4.32;;;;;;;25.73;72.91;98652.13;5109837;28;20190;-57
2022/08/26 01:33:46;;;;;;;14.20;5.05;;;;;;;25.76;72.82;98663.25;5110239;28;20277;-57
2022/08/26 01:36:13;;;;;;;22.55;5.60;;;;;;;25.73;73.13;98652.13;5109963;28;20201;-65
2022/08/26 01:38:43;;;;;;;15.63;5.45;;;;;;;25.70;72.29;98647.97;5110122;28;20190;-65
2022/08/26 01:41:13;;;;;;;15.70;4.50;;;;;;;25.57;73.09;98639.59;5110119;28;20218;-65
2022/08/26 01:43:43;;;;;;;16.85;5.43;;;;;;;25.65;72.84;98656.41;5110024;28;20198;-65
2022/08/26 01:46:11;;;;;;;15.65;5.03;;;;;;;25.67;72.52;98658.91;5109723;28;20248;-65
2022/08/26 01:48:41;;;;;;;22.85;5.60;;;;;;;25.60;72.96;98653.41;5110051;28;20226;-66
2022/08/26 01:51:09;;;;;;;18.77;4.88;;;;;;;25.59;73.15;98662.34;5110096;28;20197;-65
2022/08/26 01:53:37;;;;;;;25.25;5.43;;;;;;;25.55;73.10;98655.69;5109886;28;20197;-58
2022/08/26 01:56:08;;;;;;;23.20;5.00;;;;;;;25.53;72.97;98662.97;5109713;28;20220;-58
2022/08/26 01:58:39;;;;;;;24.35;5.88;;;;;;;25.53;73.38;98670.94;5109596;28;20281;-58
2022/08/26 02:01:07;;;;;;;22.55;5.38;;;;;;;25.49;73.22;98669.63;5109925;28;20658;-58
2022/08/26 02:03:36;;;;;;;10.82;5.05;;;;;;;25.41;74.17;98668.72;5109590;28;20194;-65
2022/08/26 02:06:07;;;;;;;25.08;5.68;;;;;;;25.40;74.30;98673.19;5109870;28;20612;-65
2022/08/26 02:08:38;;;;;;;17.65;4.78;;;;;;;25.39;74.48;98671.56;5109623;28;20616;-64
2022/08/26 02:11:07;;;;;;;21.20;6.10;;;;;;;25.39;74.25;98670.72;5109625;28;20203;-64
2022/08/26 02:13:40;;;;;;;23.33;5.38;;;;;;;25.41;74.74;98671.38;5109798;28;20722;-65
2022/08/26 02:16:08;;;;;;;22.60;5.38;;;;;;;25.36;74.58;98682.50;5109698;28;20198;-66
2022/08/26 02:18:38;;;;;;;20.48;5.05;;;;;;;25.28;74.93;98680.63;5109293;28;20231;-57
2022/08/26 02:21:07;;;;;;;25.88;10.07;;;;;;;25.23;75.53;98676.78;5109702;28;20693;-57
2022/08/26 02:23:34;;;;;;;35.92;15.00;;;;;;;25.19;76.11;98670.09;5109320;28;20289;-58
2022/08/26 02:26:07;;;;;;;40.70;13.20;;;;;;;25.18;75.90;98669.28;5109750;28;20643;-58
2022/08/26 02:28:40;;;;;;;22.15;10.45;;;;;;;25.15;76.19;98666.13;5109505;28;20218;-58
2022/08/26 02:31:07;;;;;;;23.30;5.78;;;;;;;25.07;75.71;98642.16;5109423;28;20195;-59
2022/08/26 02:33:35;;;;;;;19.75;6.40;;;;;;;25.19;76.17;98662.97;5109596;28;20234;-58
2022/08/26 02:36:02;;;;;;;27.45;7.10;;;;;;;25.15;76.10;98658.97;5109345;28;20202;-58
2022/08/26 02:38:29;;;;;;;17.95;5.32;;;;;;;25.05;75.96;98668.88;5109675;28;20201;-64
2022/08/26 02:40:56;;;;;;;17.27;5.85;;;;;;;25.07;76.05;98660.72;5109840;28;20582;-58
2022/08/26 02:43:23;;;;;;;16.75;5.80;;;;;;;25.06;76.46;98659.91;5111088;28;20198;-57
2022/08/26 02:45:51;;;;;;;15.52;6.20;;;;;;;25.04;76.53;98653.09;5112948;28;20203;-57
2022/08/26 02:48:21;;;;;;;21.38;5.38;;;;;;;24.99;76.37;98648.25;5112721;28;20609;-57
2022/08/26 02:50:48;;;;;;;27.52;5.80;;;;;;;24.96;76.96;98653.88;5112908;28;20202;-59
2022/08/26 02:53:15;;;;;;;34.00;6.32;;;;;;;24.98;76.62;98649.22;5112769;28;20229;-58
2022/08/26 02:55:43;;;;;;;26.10;5.90;;;;;;;25.00;77.20;98652.56;5112958;28;20194;-57
2022/08/26 02:58:10;;;;;;;17.95;5.18;;;;;;;24.91;76.80;98632.25;5112924;28;20273;-58
2022/08/26 03:00:38;;;;;;;21.58;4.93;;;;;;;25.04;76.62;98653.09;5112852;28;20197;-56
2022/08/26 03:03:07;;;;;;;23.58;5.88;;;;;;;24.95;76.93;98650.38;5112521;28;20201;-57
2022/08/26 03:05:34;;;;;;;23.10;5.35;;;;;;;24.99;76.71;98650.91;5112980;28;20723;-63
2022/08/26 03:08:01;;;;;;;20.95;5.05;;;;;;;24.92;76.46;98639.22;5112749;28;20215;-63
2022/08/26 03:10:30;;;;;;;26.08;5.53;;;;;;;25.03;75.66;98664.72;5112619;28;20194;-64
2022/08/26 03:12:59;;;;;;;19.75;5.43;;;;;;;24.98;76.11;98651.88;5112607;28;20240;-58
2022/08/26 03:15:27;;;;;;;20.27;5.85;;;;;;;24.95;76.14;98657.50;5111083;28;20195;-64
2022/08/26 03:17:55;;;;;;;17.92;5.10;;;;;;;24.96;75.75;98645.91;5111359;28;20222;-64
2022/08/26 03:20:24;;;;;;;23.70;5.28;;;;;;;24.96;75.83;98643.25;5112032;28;20199;-64
2022/08/26 03:22:52;;;;;;;28.92;5.32;;;;;;;24.95;74.89;98652.19;5111341;28;20286;-64
2022/08/26 03:25:21;;;;;;;20.17;5.53;;;;;;;24.91;74.88;98649.00;5110814;28;20597;-65
2022/08/26 03:27:48;;;;;;;21.40;4.93;;;;;;;24.90;75.00;98650.00;5111090;28;20202;-65
2022/08/26 03:33:00;;;;;;;24.20;5.28;;;;;;;24.92;74.83;98665.78;5112288;28;20219;-58
2022/08/26 03:35:29;;;;;;;17.20;5.38;;;;;;;24.92;75.01;98663.97;5112103;28;20216;-59
2022/08/26 03:37:56;;;;;;;23.63;5.38;;;;;;;24.79;74.62;98636.16;5112208;28;20245;-60
2022/08/26 03:40:23;;;;;;;28.15;5.63;;;;;;;24.90;74.34;98657.13;5111319;28;20194;-55
2022/08/26 03:42:50;;;;;;;16.60;4.90;;;;;;;24.83;75.16;98658.75;5110772;28;20289;-55
2022/08/26 03:45:19;;;;;;;22.98;5.28;;;;;;;24.78;75.66;98656.53;5111057;28;20202;-56
2022/08/26 03:47:47;;;;;;;22.23;5.88;;;;;;;24.76;75.25;98661.16;5111028;28;20589;-56
2022/08/26 03:50:16;;;;;;;27.38;5.72;;;;;;;24.83;74.96;98664.06;5110994;28;20218;-56
2022/08/26 03:52:46;;;;;;;32.35;11.57;;;;;;;24.81;75.14;98671.34;5110818;28;20195;-58
2022/08/26 03:55:14;;;;;;;22.50;8.20;;;;;;;24.82;75.56;98671.19;5110403;28;20203;-58
2022/08/26 03:57:41;;;;;;;27.95;6.05;;;;;;;24.79;74.94;98663.53;5110794;28;20197;-58
2022/08/26 04:00:12;;;;;;;15.95;5.43;;;;;;;24.71;75.13;98642.25;5110893;28;20580;-58
2022/08/26 04:02:39;;;;;;;25.30;6.93;;;;;;;24.84;74.64;98668.34;5110630;28;20268;-55
2022/08/26 04:05:07;;;;;;;23.95;6.60;;;;;;;24.76;74.89;98653.19;5110568;28;20195;-55
2022/08/26 04:07:35;;;;;;;28.45;6.72;;;;;;;24.84;75.04;98655.06;5110380;28;20190;-54
2022/08/26 04:10:04;;;;;;;21.67;8.05;;;;;;;24.85;74.76;98657.56;5110407;28;20715;-55
2022/08/26 04:12:31;;;;;;;31.63;6.50;;;;;;;24.87;74.16;98655.59;5110852;28;20597;-55
2022/08/26 04:14:58;;;;;;;20.05;6.72;;;;;;;24.90;73.77;98649.16;5110437;28;20203;-57
2022/08/26 04:17:25;;;;;;;20.27;5.80;;;;;;;24.96;73.48;98657.34;5109932;28;20198;-58
2022/08/26 04:19:53;;;;;;;37.20;7.80;;;;;;;25.01;73.27;98659.56;5110271;28;20186;-55
2022/08/26 04:22:20;;;;;;;31.88;7.60;;;;;;;25.10;72.53;98666.56;5109890;28;20199;-53
2022/08/26 04:24:47;;;;;;;25.45;7.80;;;;;;;25.19;72.29;98664.78;5110466;28;20190;-57
2022/08/26 04:27:15;;;;;;;23.95;6.88;;;;;;;25.27;72.11;98673.66;5110973;28;20191;-58
2022/08/26 04:29:42;;;;;;;18.55;5.68;;;;;;;25.42;71.62;98673.88;5110444;28;20608;-64
2022/08/26 04:32:09;;;;;;;17.63;6.47;;;;;;;25.53;70.58;98665.63;5110834;28;20285;-64
2022/08/26 04:34:36;;;;;;;19.13;5.97;;;;;;;25.72;70.30;98672.56;5110931;28;20548;-63
2022/08/26 04:37:04;;;;;;;20.10;6.18;;;;;;;25.80;69.58;98672.59;5110760;28;20197;-64
2022/08/26 04:39:32;;;;;;;24.88;6.60;;;;;;;25.97;69.05;98670.81;5110806;28;20198;-64
2022/08/26 04:41:59;;;;;;;30.10;7.40;;;;;;;26.10;68.28;98668.50;5110882;28;20212;-64
2022/08/26 04:44:29;;;;;;;26.10;5.82;;;;;;;26.59;66.80;98672.09;5110544;28;20199;-64
2022/08/26 04:46:58;;;;;;;26.63;6.20;;;;;;;27.50;63.58;98677.13;5110831;28;20190;-64
2022/08/26 04:49:25;;;;;;;22.40;5.78;;;;;;;28.30;60.52;98675.13;5110195;28;20226;-64
2022/08/26 04:51:52;;;;;;;21.33;5.80;;;;;;;28.94;57.60;98677.47;5110591;28;20190;-64
2022/08/26 04:54:19;;;;;;;20.40;5.85;;;;;;;29.33;56.68;98675.41;5110836;28;20655;-65
2022/08/26 04:56:48;;;;;;;25.52;6.07;;;;;;;29.59;55.10;98678.47;5110747;28;20200;-59
2022/08/26 04:59:16;;;;;;;32.08;5.80;;;;;;;29.32;54.96;98651.53;5110473;28;20700;-58
2022/08/26 05:01:45;;;;;;;26.45;5.38;;;;;;;29.63;54.69;98689.63;5110484;28;20642;-59
2022/08/26 05:04:12;;;;;;;25.50;6.35;;;;;;;29.66;54.74;98683.09;5110323;27;20655;-59
2022/08/26 05:06:39;;;;;;;14.30;5.45;;;;;;;29.42;55.18;98687.69;5109908;28;20195;-58
2022/08/26 05:09:06;;;;;;;26.48;5.15;;;;;;;29.10;55.42;98680.00;5110283;28;20218;-58
2022/08/26 05:11:33;;;;;;;35.63;5.53;;;;;;;29.33;55.16;98682.59;5110421;28;20198;-57
2022/08/26 05:14:00;;;;;;;22.70;5.15;;;;;;;29.80;53.94;98695.59;5110518;28;20585;-64
2022/08/26 05:16:28;;;;;;;25.55;5.00;;;;;;;30.50;52.14;98703.00;5110059;28;20190;-64
2022/08/26 05:18:56;;;;;;;24.42;5.03;;;;;;;30.97;50.46;98699.75;5110066;28;20238;-64
2022/08/26 05:21:25;;;;;;;24.52;5.50;;;;;;;30.97;49.92;98705.94;5110256;28;20197;-64
2022/08/26 05:23:53;;;;;;;17.83;4.95;;;;;;;30.60;50.88;98708.91;5110149;28;20199;-64
2022/08/26 05:26:21;;;;;;;15.45;4.85;;;;;;;30.07;52.43;98708.31;5110053;28;20199;-63
2022/08/26 05:28:48;;;;;;;16.48;5.38;;;;;;;29.52;53.31;98709.66;5109868;28;20307;-64
2022/08/26 05:31:16;;;;;;;20.00;5.03;;;;;;;29.11;54.33;98705.72;5110000;28;20293;-57
2022/08/26 05:33:44;;;;;;;23.73;4.93;;;;;;;28.65;56.25;98705.75;5110030;28;20201;-58
2022/08/26 05:36:15;;;;;;;25.40;4.90;;;;;;;28.59;56.43;98710.94;5109903;28;20201;-57
2022/08/26 05:38:43;;;;;;;23.77;5.13;;;;;;;28.56;56.67;98709.47;5109913;28;20190;-58
2022/08/26 05:41:16;;;;;;;16.10;4.90;;;;;;;28.38;57.33;98706.25;5109880;28;20199;-58
2022/08/26 05:43:43;;;;;;;24.95;6.00;;;;;;;28.39;57.43;98707.94;5109949;28;20595;-58
2022/08/26 05:46:10;;;;;;;21.75;5.60;;;;;;;28.27;58.21;98706.66;5110100;28;20670;-64
2022/08/26 05:48:38;;;;;;;20.38;5.18;;;;;;;28.08;58.55;98719.44;5109673;28;20194;-64
2022/08/26 05:51:07;;;;;;;23.10;5.35;;;;;;;28.41;57.87;98714.75;5110049;28;20224;-64
2022/08/26 05:53:36;;;;;;;19.35;5.20;;;;;;;29.50;55.04;98721.53;5109943;28;20198;-64
2022/08/26 05:56:05;;;;;;;19.88;5.38;;;;;;;30.52;51.02;98733.13;5109896;28;20194;-64
2022/08/26 05:58:34;;;;;;;16.02;4.85;;;;;;;31.27;48.55;98732.59;5110034;28;20713;-64
2022/08/26 06:01:04;;;;;;;27.63;6.25;;;;;;;31.19;48.76;98746.16;5109548;28;20190;-64
2022/08/26 06:03:33;;;;;;;28.42;6.93;;;;;;;30.64;50.07;98747.69;5109765;28;20656;-58
2022/08/26 06:06:04;;;;;;;18.95;5.50;;;;;;;30.08;51.11;98747.44;5109715;28;20203;-57
2022/08/26 06:08:30;;;;;;;20.38;5.10;;;;;;;29.65;52.76;98735.75;5109602;28;20584;-63
2022/08/26 06:11:04;;;;;;;26.45;5.88;;;;;;;29.31;53.54;98728.22;5109594;28;20214;-63
2022/08/26 06:13:32;;;;;;;27.13;6.05;;;;;;;29.16;54.76;98725.53;5109662;28;20198;-64
2022/08/26 06:16:02;;;;;;;24.13;5.70;;;;;;;29.19;53.96;98729.69;5109596;28;20235;-64
2022/08/26 06:18:33;;;;;;;20.30;5.68;;;;;;;28.87;54.98;98728.97;5111642;28;20234;-63
2022/08/26 06:21:02;;;;;;;24.90;5.38;;;;;;;28.56;55.93;98733.50;5112807;28;20278;-64
2022/08/26 06:26:16;;;;;;;25.50;5.43;;;;;;;28.37;56.66;98742.78;5113408;28;20256;-65
2022/08/26 06:28:44;;;;;;;18.60;6.32;;;;;;;28.40;56.22;98742.47;5113328;28;20199;-58
2022/08/26 06:31:11;;;;;;;26.48;6.32;;;;;;;28.37;56.10;98734.78;5112443;28;20625;-58
2022/08/26 06:33:38;;;;;;;27.35;6.22;;;;;;;28.53;56.03;98760.56;5112806;28;20201;-58
2022/08/26 06:36:05;;;;;;;28.15;5.57;;;;;;;28.51;55.65;98759.91;5112714;28;20198;-58
2022/08/26 06:38:32;;;;;;;24.50;6.10;;;;;;;28.51;55.99;98763.41;5113220;28;20203;-64
2022/08/26 06:40:59;;;;;;;39.35;5.60;;;;;;;28.61;55.75;98773.03;5112936;28;20191;-58
2022/08/26 06:43:29;;;;;;;23.08;6.05;;;;;;;28.57;56.55;98761.84;5112627;28;20190;-57
2022/08/26 06:46:04;;;;;;;25.92;5.72;;;;;;;28.63;56.46;98771.84;5110029;28;20236;-58
2022/08/26 06:48:31;;;;;;;30.58;5.95;;;;;;;28.91;54.87;98769.50;5113366;28;20198;-59
2022/08/26 06:51:09;;;;;;;22.10;5.95;;;;;;;28.94;54.93;98773.66;5112856;28;20230;-57
2022/08/26 06:53:37;;;;;;;22.60;5.85;;;;;;;28.93;55.19;98766.63;5112849;28;20202;-60
2022/08/26 06:56:06;;;;;;;24.52;6.30;;;;;;;28.91;54.88;98777.50;5112738;28;20187;-65
2022/08/26 06:58:36;;;;;;;26.52;5.15;;;;;;;28.87;55.56;98779.72;5112663;28;20285;-65
2022/08/26 07:01:03;;;;;;;34.85;9.50;;;;;;;28.93;55.00;98761.28;5112379;28;20278;-65
2022/08/26 07:03:30;;;;;;;23.27;6.05;;;;;;;28.96;54.86;98780.47;5112296;28;20202;-65
2022/08/26 07:06:02;;;;;;;18.65;5.38;;;;;;;28.98;54.31;98774.97;5112368;28;20197;-57
2022/08/26 07:08:29;;;;;;;24.60;5.95;;;;;;;29.21;53.89;98776.59;5110112;28;20191;-66
2022/08/26 07:10:56;;;;;;;18.65;5.40;;;;;;;29.58;53.26;98789.13;5111972;28;20211;-64
2022/08/26 07:13:23;;;;;;;16.35;5.20;;;;;;;30.51;50.75;98787.69;5112588;28;20191;-64
2022/08/26 07:15:52;;;;;;;21.08;4.72;;;;;;;31.28;49.18;98783.34;5112882;28;20277;-58
2022/08/26 07:18:18;;;;;;;19.70;5.15;;;;;;;31.41;48.34;98787.97;5112307;28;20241;-65
2022/08/26 07:20:46;;;;;;;18.00;5.32;;;;;;;31.18;48.75;98784.69;5112463;28;20195;-65
2022/08/26 07:23:13;;;;;;;17.75;4.63;;;;;;;31.00;48.75;98796.69;5112604;28;20230;-66
2022/08/26 07:25:40;;;;;;;28.63;5.65;;;;;;;30.88;49.04;98800.91;5112328;28;20202;-64
2022/08/26 07:28:07;;;;;;;19.52;5.70;;;;;;;30.79;49.49;98799.38;5111818;28;20198;-65
2022/08/26 07:30:39;;;;;;;22.00;6.15;;;;;;;30.68;49.59;98787.31;5112837;28;20723;-65
2022/08/26 07:33:07;;;;;;;28.63;7.25;;;;;;;30.83;49.69;98799.81;5112936;28;20657;-64
2022/08/26 07:35:34;;;;;;;14.43;6.13;;;;;;;31.08;49.61;98806.44;5112127;28;20194;-66
2022/08/26 07:38:01;;;;;;;27.55;6.03;;;;;;;31.17;49.11;98799.13;5111993;28;20593;-65
2022/08/26 07:40:28;;;;;;;28.83;5.30;;;;;;;31.81;47.90;98801.72;5112076;28;20195;-65
2022/08/26 07:43:01;;;;;;;28.45;6.60;;;;;;;32.10;45.77;98793.41;5112148;28;20286;-65
2022/08/26 07:45:28;;;;;;;23.48;6.97;;;;;;;31.82;46.32;98800.69;5109012;28;20200;-65
2022/08/26 07:47:55;;;;;;;21.05;6.15;;;;;;;31.36;47.91;98787.75;5111368;28;20202;-64
2022/08/26 07:50:23;;;;;;;25.52;5.30;;;;;;;31.07;48.41;98788.69;5111497;28;20220;-64
2022/08/26 07:52:50;;;;;;;29.00;5.95;;;;;;;30.75;49.95;98781.19;5111067;28;20712;-58
2022/08/26 07:55:17;;;;;;;21.10;5.45;;;;;;;30.58;48.62;98794.84;5110917;28;20218;-58
2022/08/26 07:57:45;;;;;;;24.48;5.30;;;;;;;30.33;50.19;98783.59;5111496;28;20671;-64
2022/08/26 08:00:14;;;;;;;23.38;6.05;;;;;;;30.22;51.39;98784.09;5110989;28;20198;-64
2022/08/26 08:02:43;;;;;;;28.70;5.78;;;;;;;30.17;51.23;98783.78;5111209;28;20202;-64
2022/08/26 08:05:10;;;;;;;17.20;5.35;;;;;;;30.09;52.25;98786.59;5110795;28;20698;-65
2022/08/26 08:07:39;;;;;;;24.60;5.63;;;;;;;29.95;52.62;98784.72;5110575;28;20197;-65
2022/08/26 08:10:08;;;;;;;19.55;5.55;;;;;;;29.87;52.38;98782.97;5111049;28;20211;-64
2022/08/26 08:12:35;;;;;;;20.63;4.95;;;;;;;29.92;51.95;98791.25;5111416;28;20225;-65
2022/08/26 08:15:02;;;;;;;29.10;5.47;;;;;;;29.85;52.10;98793.03;5111448;28;20195;-65
2022/08/26 08:17:29;;;;;;;24.27;5.80;;;;;;;29.93;52.33;98794.75;5111016;28;20313;-65
2022/08/26 08:19:56;;;;;;;30.73;6.07;;;;;;;30.16;52.20;98792.00;5111063;28;20194;-65
2022/08/26 08:22:23;;;;;;;27.98;5.97;;;;;;;30.07;52.73;98793.13;5111338;28;20221;-58
2022/08/26 08:24:51;;;;;;;25.40;5.80;;;;;;;30.22;52.58;98791.28;5111082;28;20251;-58
2022/08/26 08:27:18;;;;;;;22.13;5.88;;;;;;;30.09;52.85;98780.41;5110968;28;20200;-58
2022/08/26 08:29:46;;;;;;;37.90;7.20;;;;;;;30.18;52.93;98785.47;5110288;28;20226;-57
2022/08/26 08:32:13;;;;;;;25.58;7.05;;;;;;;30.23;52.67;98785.75;5110735;28;20198;-57
2022/08/26 08:34:40;;;;;;;22.63;6.45;;;;;;;30.28;52.64;98795.88;5111060;28;20202;-65
2022/08/26 08:37:07;;;;;;;26.23;5.82;;;;;;;30.19;51.75;98786.28;5110998;28;20195;-65
2022/08/26 08:39:34;;;;;;;26.60;5.60;;;;;;;30.37;51.63;98796.59;5110768;28;20194;-64
2022/08/26 08:42:34;;;;;;;19.95;5.40;;;;;;;30.44;51.77;98797.50;5110179;28;20199;-65
2022/08/26 08:45:07;;;;;;;22.55;5.95;;;;;;;30.54;52.35;98796.22;5110600;28;20202;-58
2022/08/26 08:47:37;;;;;;;27.38;5.72;;;;;;;30.93;50.96;98785.06;5111029;28;20233;-64
2022/08/26 08:50:11;;;;;;;18.02;5.18;;;;;;;31.68;49.24;98797.91;5110711;28;20609;-65
2022/08/26 08:52:41;;;;;;;27.48;6.10;;;;;;;32.14;47.78;98793.84;5110734;28;20194;-57
2022/08/26 08:55:08;;;;;;;15.93;5.85;;;;;;;32.25;48.21;98794.13;5110516;28;20264;-58
2022/08/26 08:57:55;;;;;;;19.58;5.82;;;;;;;32.30;47.92;98799.72;5110396;28;20202;-65
2022/08/26 09:00:23;;;;;;;28.55;5.75;;;;;;;32.45;47.85;98797.72;5110543;27;20212;-64
2022/08/26 09:02:53;;;;;;;21.35;8.85;;;;;;;32.34;47.19;98795.59;5110499;28;20286;-65
2022/08/26 09:05:23;;;;;;;17.17;5.72;;;;;;;32.06;47.24;98792.97;5110256;28;20195;-65
2022/08/26 09:07:56;;;;;;;29.08;6.38;;;;;;;31.93;48.47;98792.91;5110274;28;20289;-65
2022/08/26 09:10:34;;;;;;;23.30;5.82;;;;;;;31.82;48.10;98792.66;5110106;28;20249;-65
2022/08/26 09:13:08;;;;;;;15.27;5.03;;;;;;;31.88;48.15;98794.53;5110107;28;20202;-58
2022/08/26 09:15:50;;;;;;;25.55;5.45;;;;;;;31.77;46.95;98742.22;5110139;28;20234;-65
2022/08/26 09:18:30;;;;;;;25.77;5.95;;;;;;;32.09;46.05;98791.75;5109834;28;20237;-65
2022/08/26 09:21:02;;;;;;;20.85;7.32;;;;;;;32.16;44.21;98799.84;5110224;28;20577;-65
2022/08/26 09:23:29;;;;;;;22.75;8.23;;;;;;;32.31;44.76;98801.38;5109954;28;20205;-65
2022/08/26 09:25:59;;;;;;;16.60;6.82;;;;;;;32.36;43.90;98793.56;5110153;28;20215;-65
2022/08/26 09:28:30;;;;;;;19.30;5.68;;;;;;;33.37;41.24;98790.88;5109803;28;20201;-65
2022/08/26 09:31:09;;;;;;;17.00;5.28;;;;;;;34.40;39.47;98797.31;5109757;28;20218;-66
2022/08/26 09:33:37;;;;;;;22.35;5.70;;;;;;;35.36;38.27;98789.03;5109991;28;20191;-65
2022/08/26 09:36:21;;;;;;;16.08;5.40;;;;;;;35.81;36.67;98806.69;5109419;28;20676;-64
2022/08/26 09:38:50;;;;;;;18.40;5.07;;;;;;;35.36;36.36;98792.56;5109899;28;20571;-64
2022/08/26 09:41:30;;;;;;;15.70;5.50;;;;;;;34.46;36.77;98794.56;5109359;28;20190;-58
2022/08/26 09:44:14;;;;;;;14.43;5.65;;;;;;;34.24;37.33;98787.78;5109175;28;20268;-58
2022/08/26 09:46:46;;;;;;;16.52;5.40;;;;;;;34.27;37.26;98792.78;5107186;28;20285;-57
2022/08/26 09:49:29;;;;;;;24.27;5.47;;;;;;;34.26;36.91;98795.69;5109846;28;20662;-58
2022/08/26 09:52:17;;;;;;;19.17;5.25;;;;;;;34.37;36.68;98803.09;5111392;28;20275;-58
2022/08/26 09:54:45;;;;;;;24.55;6.18;;;;;;;34.84;36.20;98799.97;5114510;27;20189;-57
2022/08/26 09:57:16;;;;;;;44.35;30.77;;;;;;;34.73;34.76;98803.34;5113992;28;20195;-57
2022/08/26 09:59:45;;;;;;;24.35;5.60;;;;;;;34.19;33.30;98811.88;5114189;28;20194;-59
2022/08/26 10:02:36;;;;;;;25.60;5.80;;;;;;;33.95;33.88;98815.25;5113581;28;20316;-64
2022/08/26 10:05:08;;;;;;;20.88;8.52;;;;;;;34.30;33.40;98815.78;5114133;28;20199;-65
2022/08/26 10:07:40;;;;;;;29.00;5.47;;;;;;;34.68;33.43;98810.41;5114316;28;20289;-65
2022/08/26 10:10:12;;;;;;;15.45;5.18;;;;;;;35.25;33.25;98812.16;5098950;28;20215;-58
2022/08/26 10:12:52;;;;;;;18.15;5.10;;;;;;;34.94;33.32;98810.28;5092828;28;20226;-58
2022/08/26 10:15:23;;;;;;;19.52;5.68;;;;;;;34.67;34.49;98796.09;5092425;28;20218;-57
2022/08/26 10:18:00;;;;;;;25.70;5.03;;;;;;;34.30;32.11;98813.94;5092687;28;20282;-57
2022/08/26 10:20:31;;;;;;;12.13;5.22;;;;;;;34.05;31.96;98813.78;5116772;27;20214;-58
2022/08/26 10:23:02;;;;;;;23.65;5.68;;;;;;;34.38;32.46;98813.69;5112562;28;20206;-58
2022/08/26 10:25:34;;;;;;;21.02;5.00;;;;;;;34.11;31.76;98788.66;5112705;28;20202;-57
2022/08/26 10:28:07;;;;;;;23.42;5.35;;;;;;;34.18;31.41;98794.88;5111017;28;20604;-58
2022/08/26 10:30:40;;;;;;;22.58;5.63;;;;;;;34.51;30.43;98821.72;5113270;28;20222;-58
2022/08/26 10:33:10;;;;;;;27.17;5.68;;;;;;;34.48;31.29;98822.13;5113447;28;20201;-59
2022/08/26 10:35:44;;;;;;;23.80;5.50;;;;;;;34.27;30.11;98825.13;5113223;28;20275;-58
2022/08/26 10:38:16;;;;;;;14.18;5.25;;;;;;;33.75;30.73;98826.88;5103631;28;20236;-59
2022/08/26 10:40:55;;;;;;;16.15;5.50;;;;;;;33.40;31.94;98825.44;5092720;28;20195;-58
2022/08/26 10:43:25;;;;;;;13.80;5.10;;;;;;;33.31;32.65;98840.94;5092863;28;20215;-58
2022/08/26 10:45:58;;;;;;;21.63;5.80;;;;;;;32.90;34.30;98824.09;5092575;28;20191;-58
2022/08/26 10:48:35;;;;;;;16.23;4.75;;;;;;;32.33;34.19;98839.59;5092874;28;20606;-64
2022/08/26 10:51:03;;;;;;;11.57;4.80;;;;;;;31.86;35.08;98831.47;5092571;28;20219;-65
2022/08/26 10:53:40;;;;;;;12.40;5.32;;;;;;;31.63;36.09;98824.50;5092544;28;20211;-65
2022/08/26 10:56:16;;;;;;;15.48;5.05;;;;;;;31.49;35.40;98827.25;5092333;28;20198;-63
2022/08/26 10:58:56;;;;;;;15.43;4.72;;;;;;;31.23;35.26;98825.19;5092498;28;20195;-63
2022/08/26 11:01:45;;;;;;;17.23;4.88;;;;;;;31.20;35.75;98822.88;5092234;28;20197;-58
2022/08/26 11:04:38;;;;;;;12.25;4.65;;;;;;;31.29;35.74;98821.72;5097970;28;20259;-57
2022/08/26 11:07:37;;;;;;;23.73;4.82;;;;;;;31.28;36.17;98825.41;5112866;28;20617;-58
2022/08/26 11:10:22;;;;;;;18.65;5.53;;;;;;;31.25;35.65;98821.28;5112119;28;20194;-58
2022/08/26 11:12:55;;;;;;;14.68;5.20;;;;;;;31.20;36.27;98825.56;5100217;28;20194;-58
2022/08/26 11:15:59;;;;;;;17.58;5.68;;;;;;;31.25;36.28;98813.25;5111930;28;20289;-58
2022/08/26 11:18:45;;;;;;;20.95;5.90;;;;;;;31.33;36.75;98799.69;5111358;28;20214;-58
2022/08/26 11:22:05;;;;;;;21.00;5.10;;;;;;;31.56;36.11;98804.81;5109233;28;20186;-58
2022/08/26 11:25:05;;;;;;;16.20;5.97;;;;;;;31.72;36.06;98804.53;5109324;28;20289;-64
2022/08/26 11:27:58;;;;;;;20.73;6.18;;;;;;;31.87;36.80;98803.59;5108977;28;20305;-65
2022/08/26 11:30:46;;;;;;;29.77;7.07;;;;;;;31.73;35.73;98798.13;5095139;28;20650;-58
2022/08/26 11:33:57;;;;;;;19.40;6.22;;;;;;;31.67;36.07;98804.31;5108365;28;20221;-58
2022/08/26 11:36:56;;;;;;;31.20;6.57;;;;;;;31.75;36.46;98790.72;5101131;28;20757;-59
2022/08/26 11:39:28;;;;;;;21.33;6.00;;;;;;;31.57;36.54;98798.44;5105969;28;20255;-58
2022/08/26 11:41:58;;;;;;;25.73;6.50;;;;;;;31.53;37.49;98791.78;5111673;28;20194;-65
2022/08/26 11:44:27;;;;;;;20.80;5.95;;;;;;;31.61;38.63;98797.00;5111257;28;20281;-65
2022/08/26 11:46:58;;;;;;;25.40;6.25;;;;;;;31.67;40.04;98798.13;5109335;28;20202;-65